Time;durP1;ratioP1;P1;durP2;ratioP2;P2;SDS_P1;SDS_P2;PMS_P1;PMS_P2;Temp;Humidity;BMP_temperature;BMP_pressure;BME280_temperature;BME280_humidity;BME280_pressure;Samples;Min_cycle;Max_cycle;Signal;HPM_P1;HPM_P2
2023/03/15 04:01:28;;;;;;;0.25;0.20;;;17.30;51.20;;;;;;5449989;23;45792;-66
2023/03/15 04:03:53;;;;;;;0.20;0.20;;;17.30;51.20;;;;;;4919988;28;45387;-65
2023/03/15 04:06:21;;;;;;;1.17;0.20;;;17.30;51.20;;;;;;4892235;28;45308;-66
2023/03/15 04:08:46;;;;;;;0.22;0.10;;;17.30;51.20;;;;;;4931523;28;44819;-66
2023/03/15 04:11:16;;;;;;;0.13;0.13;;;17.20;51.20;;;;;;4893435;28;45282;-65
2023/03/15 04:13:43;;;;;;;0.22;0.20;;;17.30;51.20;;;;;;4883197;28;45484;-65
2023/03/15 04:16:08;;;;;;;0.20;0.20;;;17.20;51.20;;;;;;4867231;28;45304;-65
2023/03/15 04:18:34;;;;;;;0.75;0.30;;;17.20;51.20;;;;;;4912441;28;45714;-65
2023/03/15 04:20:59;;;;;;;0.10;0.10;;;17.20;51.20;;;;;;4924553;28;46140;-65
2023/03/15 04:23:25;;;;;;;0.20;0.20;;;17.20;51.20;;;;;;4908062;28;45034;-66
2023/03/15 04:25:51;;;;;;;0.20;0.13;;;17.20;51.30;;;;;;4889522;28;45251;-65
2023/03/15 04:28:17;;;;;;;0.30;0.20;;;17.20;51.30;;;;;;4906504;28;44724;-64
2023/03/15 04:30:43;;;;;;;0.55;0.43;;;17.20;51.20;;;;;;4871194;28;45929;-65
2023/03/15 04:33:09;;;;;;;0.40;0.30;;;17.20;51.60;;;;;;4891288;28;45727;-66
2023/03/15 04:35:36;;;;;;;0.65;0.30;;;17.20;51.20;;;;;;4904017;28;45425;-66
2023/03/15 04:38:02;;;;;;;0.20;0.20;;;17.10;51.30;;;;;;4881854;28;44724;-66
2023/03/15 04:40:28;;;;;;;0.30;0.20;;;17.10;51.30;;;;;;4891175;28;45341;-65
2023/03/15 04:42:54;;;;;;;0.38;0.20;;;17.20;51.30;;;;;;4895644;28;45777;-65
2023/03/15 04:45:20;;;;;;;0.30;0.20;;;17.10;51.30;;;;;;4918789;28;45245;-65
2023/03/15 04:47:47;;;;;;;0.30;0.30;;;17.10;51.20;;;;;;4907998;28;45049;-64
2023/03/15 04:50:13;;;;;;;0.60;0.30;;;17.10;51.20;;;;;;4906171;28;45436;-64
2023/03/15 04:52:38;;;;;;;0.63;0.20;;;17.10;51.20;;;;;;4882336;28;45670;-65
2023/03/15 04:55:05;;;;;;;0.55;0.17;;;17.10;51.20;;;;;;4896812;28;45040;-65
2023/03/15 04:57:30;;;;;;;0.30;0.20;;;17.10;51.20;;;;;;4875865;28;45296;-65
2023/03/15 04:59:56;;;;;;;0.35;0.17;;;17.10;51.20;;;;;;4894565;28;45223;-66
2023/03/15 05:02:22;;;;;;;0.88;0.28;;;17.10;51.20;;;;;;4889700;28;45914;-65
2023/03/15 05:04:47;;;;;;;0.20;0.20;;;17.00;51.20;;;;;;4889118;28;45457;-65
2023/03/15 05:07:13;;;;;;;0.63;0.28;;;17.00;51.30;;;;;;4903741;28;45846;-66
2023/03/15 05:09:38;;;;;;;0.55;0.15;;;17.00;51.20;;;;;;4891103;28;46513;-63
2023/03/15 05:12:04;;;;;;;0.20;0.20;;;17.00;51.20;;;;;;4888897;28;45997;-64
2023/03/15 05:14:31;;;;;;;0.45;0.35;;;17.00;51.30;;;;;;4893616;28;45300;-65
2023/03/15 05:16:58;;;;;;;0.20;0.20;;;17.00;51.30;;;;;;4878707;28;45630;-65
2023/03/15 05:19:24;;;;;;;1.27;0.30;;;17.00;51.30;;;;;;4891126;28;45373;-64
2023/03/15 05:21:50;;;;;;;0.60;0.20;;;16.90;51.20;;;;;;4896673;28;45630;-66
2023/03/15 05:24:15;;;;;;;0.20;0.20;;;16.90;51.20;;;;;;4905182;28;45029;-66
2023/03/15 05:26:45;;;;;;;0.30;0.20;;;16.90;51.30;;;;;;4904491;28;45371;-65
2023/03/15 05:29:14;;;;;;;0.35;0.20;;;16.90;51.20;;;;;;4885008;28;45458;-66
2023/03/15 05:31:39;;;;;;;0.52;0.30;;;16.90;51.20;;;;;;4896718;28;45509;-64
2023/03/15 05:34:06;;;;;;;0.30;0.20;;;16.90;51.20;;;;;;4858517;28;45431;-65
2023/03/15 05:36:32;;;;;;;0.25;0.25;;;16.90;51.20;;;;;;4868809;28;45746;-64
2023/03/15 05:38:57;;;;;;;0.13;0.13;;;16.90;51.20;;;;;;4883299;28;46491;-65
2023/03/15 05:41:23;;;;;;;0.20;0.20;;;16.90;51.20;;;;;;4900135;28;46399;-65
2023/03/15 05:43:49;;;;;;;0.10;0.10;;;16.90;51.30;;;;;;4870979;28;46114;-65
2023/03/15 05:46:15;;;;;;;0.22;0.20;;;16.90;51.30;;;;;;4883463;28;45005;-65
2023/03/15 05:48:41;;;;;;;0.28;0.10;;;16.90;51.30;;;;;;4905031;28;45034;-64
2023/03/15 05:51:06;;;;;;;0.68;0.38;;;16.90;51.30;;;;;;4863440;28;47178;-65
2023/03/15 05:53:32;;;;;;;0.10;0.10;;;16.90;51.30;;;;;;4891960;28;45128;-65
2023/03/15 05:55:58;;;;;;;0.43;0.30;;;16.80;51.30;;;;;;4902274;28;45285;-65
2023/03/15 05:58:23;;;;;;;0.73;0.30;;;16.80;51.30;;;;;;4906900;28;45217;-65
2023/03/15 06:00:49;;;;;;;0.40;0.30;;;16.80;51.30;;;;;;4881272;28;47994;-66
2023/03/15 06:03:18;;;;;;;0.63;0.13;;;16.80;51.40;;;;;;4934615;23;45377;-65
2023/03/15 06:05:43;;;;;;;0.35;0.20;;;16.80;51.40;;;;;;4922446;28;45606;-64
2023/03/15 06:08:09;;;;;;;0.20;0.20;;;16.80;51.30;;;;;;4913934;28;45370;-65
2023/03/15 06:10:34;;;;;;;0.20;0.20;;;16.80;51.30;;;;;;4906280;28;47128;-65
2023/03/15 06:13:00;;;;;;;0.20;0.20;;;16.80;51.30;;;;;;4926760;28;44743;-66
2023/03/15 06:15:26;;;;;;;0.50;0.30;;;16.80;51.40;;;;;;4920852;28;45992;-66
2023/03/15 06:17:51;;;;;;;0.25;0.10;;;16.80;51.30;;;;;;4925199;28;45231;-64
2023/03/15 06:20:17;;;;;;;0.93;0.22;;;16.80;51.40;;;;;;4943935;28;46184;-65
2023/03/15 06:22:43;;;;;;;0.43;0.30;;;16.80;51.40;;;;;;4913739;28;45211;-64
2023/03/15 06:25:09;;;;;;;0.25;0.20;;;16.70;51.30;;;;;;4924310;28;45212;-66
2023/03/15 06:27:35;;;;;;;0.25;0.25;;;16.80;51.30;;;;;;4895156;28;45348;-66
2023/03/15 06:30:00;;;;;;;0.10;0.10;;;16.80;51.30;;;;;;4940277;28;45420;-65
2023/03/15 06:32:26;;;;;;;0.47;0.28;;;16.80;51.30;;;;;;4913190;28;45703;-64
2023/03/15 06:34:51;;;;;;;0.22;0.22;;;16.80;51.40;;;;;;4912195;28;45154;-65
2023/03/15 06:37:17;;;;;;;0.10;0.10;;;16.80;51.30;;;;;;4925028;28;45465;-64
2023/03/15 06:39:43;;;;;;;0.25;0.25;;;16.80;51.30;;;;;;4907432;28;47268;-65
2023/03/15 06:42:11;;;;;;;0.15;0.15;;;16.80;51.20;;;;;;4893600;28;45438;-66
2023/03/15 06:44:38;;;;;;;0.80;0.20;;;16.80;51.20;;;;;;4930904;28;45628;-65
2023/03/15 06:47:03;;;;;;;0.68;0.30;;;16.80;51.20;;;;;;4902174;28;45486;-65
2023/03/15 06:49:29;;;;;;;0.40;0.20;;;16.80;51.10;;;;;;4911764;28;47034;-65
2023/03/15 06:51:55;;;;;;;0.45;0.22;;;16.80;51.10;;;;;;4908410;28;44670;-66
2023/03/15 06:54:21;;;;;;;0.30;0.10;;;16.80;51.00;;;;;;4915034;28;46138;-66
2023/03/15 06:56:47;;;;;;;0.25;0.20;;;16.80;51.00;;;;;;4877221;28;46076;-65
2023/03/15 06:59:12;;;;;;;0.10;0.10;;;16.80;51.00;;;;;;4947670;28;45600;-59
2023/03/15 07:01:38;;;;;;;0.22;0.20;;;16.80;51.00;;;;;;4936045;28;45393;-60
2023/03/15 07:04:03;;;;;;;0.20;0.20;;;16.80;51.00;;;;;;4946512;28;45436;-59
2023/03/15 07:06:29;;;;;;;1.08;0.40;;;16.90;51.00;;;;;;4924612;28;45270;-59
2023/03/15 07:08:54;;;;;;;0.55;0.30;;;17.00;51.00;;;;;;4947820;28;46822;-59
2023/03/15 07:11:20;;;;;;;0.52;0.30;;;17.10;50.70;;;;;;4936071;28;45051;-58
2023/03/15 07:13:45;;;;;;;0.20;0.20;;;17.30;50.50;;;;;;4944971;28;45325;-60
2023/03/15 07:16:11;;;;;;;0.52;0.20;;;17.50;50.20;;;;;;4922070;28;45526;-59
2023/03/15 07:18:37;;;;;;;0.55;0.25;;;17.70;49.90;;;;;;4933446;28;45489;-60
2023/03/15 07:21:03;;;;;;;0.30;0.20;;;18.00;49.60;;;;;;4948294;23;45206;-60
2023/03/15 07:23:28;;;;;;;0.20;0.20;;;18.20;49.40;;;;;;4900103;28;45180;-60
2023/03/15 07:25:54;;;;;;;0.32;0.20;;;18.30;49.10;;;;;;4929548;28;45662;-59
2023/03/15 07:28:20;;;;;;;0.82;0.13;;;18.50;48.90;;;;;;4909986;28;45705;-60
2023/03/15 07:30:57;;;;;;;0.20;0.20;;;18.70;49.30;;;;;;4902893;28;45319;-63
2023/03/15 07:33:23;;;;;;;0.40;0.30;;;18.90;48.50;;;;;;4919297;28;45631;-58
2023/03/15 07:35:55;;;;;;;0.50;0.10;;;19.00;48.50;;;;;;4929250;28;45272;-60
2023/03/15 07:38:25;;;;;;;2.53;0.15;;;19.10;48.40;;;;;;4923973;28;45118;-59
2023/03/15 07:40:50;;;;;;;0.10;0.10;;;19.20;48.50;;;;;;4896505;28;45591;-60
2023/03/15 07:43:16;;;;;;;0.30;0.20;;;19.30;48.30;;;;;;4913136;28;45314;-59
2023/03/15 07:45:41;;;;;;;0.10;0.10;;;19.40;48.20;;;;;;4926539;28;45125;-60
2023/03/15 07:48:07;;;;;;;0.10;0.10;;;19.60;48.20;;;;;;4926998;28;45488;-60
2023/03/15 07:50:33;;;;;;;0.35;0.20;;;19.70;48.10;;;;;;4910261;28;45597;-59
2023/03/15 07:52:58;;;;;;;0.32;0.10;;;19.80;48.10;;;;;;4914290;28;45649;-60
2023/03/15 07:55:24;;;;;;;0.20;0.20;;;20.00;48.00;;;;;;4913036;28;45741;-59
2023/03/15 07:57:50;;;;;;;0.28;0.20;;;20.10;47.90;;;;;;4926285;28;45741;-60
2023/03/15 08:00:17;;;;;;;0.35;0.17;;;20.20;47.70;;;;;;4908700;28;45564;-59
2023/03/15 08:02:42;;;;;;;0.20;0.10;;;20.30;47.60;;;;;;4915147;28;46025;-59
2023/03/15 08:05:09;;;;;;;0.20;0.10;;;20.40;47.60;;;;;;4912823;28;45305;-59
2023/03/15 08:07:35;;;;;;;0.20;0.10;;;20.50;47.50;;;;;;4913742;28;46222;-60
2023/03/15 08:10:06;;;;;;;0.10;0.10;;;20.60;47.40;;;;;;4895245;28;45235;-60
2023/03/15 08:12:33;;;;;;;0.08;0.08;;;20.70;47.20;;;;;;4896339;28;45378;-61
2023/03/15 08:14:59;;;;;;;0.10;0.10;;;20.80;47.10;;;;;;4916952;28;45563;-61
2023/03/15 08:17:25;;;;;;;0.20;0.20;;;20.90;46.90;;;;;;4919015;28;47064;-60
2023/03/15 08:19:50;;;;;;;0.40;0.20;;;21.00;47.00;;;;;;4910601;28;45258;-61
2023/03/15 08:22:16;;;;;;;0.10;0.10;;;21.10;46.80;;;;;;4904427;28;45118;-60
2023/03/15 08:24:41;;;;;;;0.30;0.20;;;21.20;46.90;;;;;;4913684;28;45504;-60
2023/03/15 08:27:07;;;;;;;0.30;0.20;;;21.20;46.70;;;;;;4891883;28;45227;-60
2023/03/15 08:29:33;;;;;;;0.15;0.15;;;21.30;46.70;;;;;;4909568;28;44965;-59
2023/03/15 08:31:58;;;;;;;0.10;0.10;;;21.30;46.60;;;;;;4899659;28;46091;-61
2023/03/15 08:34:24;;;;;;;0.10;0.10;;;21.40;46.60;;;;;;4911693;28;45660;-59
2023/03/15 08:36:50;;;;;;;0.43;0.10;;;21.50;46.50;;;;;;4916409;28;45532;-63
2023/03/15 08:39:15;;;;;;;0.13;0.10;;;21.50;46.50;;;;;;4912859;28;44634;-60
2023/03/15 08:41:42;;;;;;;0.28;0.08;;;21.60;46.50;;;;;;4891606;28;45615;-61
2023/03/15 08:44:08;;;;;;;0.00;0.00;;;21.60;46.50;;;;;;4913500;28;45165;-61
2023/03/15 08:46:33;;;;;;;0.25;0.10;;;21.70;46.50;;;;;;4929099;23;46283;-60
2023/03/15 08:48:59;;;;;;;0.10;0.10;;;21.70;46.40;;;;;;4897820;28;45073;-59
2023/03/15 08:51:25;;;;;;;0.30;0.20;;;21.80;46.30;;;;;;4926899;28;45634;-59
2023/03/15 08:53:51;;;;;;;2.20;0.20;;;21.90;46.40;;;;;;4915314;28;45588;-56
2023/03/15 08:56:17;;;;;;;0.10;0.10;;;22.00;46.20;;;;;;4891529;28;45718;-55
2023/03/15 08:58:42;;;;;;;0.10;0.10;;;22.10;46.10;;;;;;4934586;28;45462;-61
2023/03/15 09:01:10;;;;;;;0.30;0.20;;;22.20;46.00;;;;;;4905318;28;44921;-61
2023/03/15 09:03:36;;;;;;;0.77;0.30;;;22.20;45.80;;;;;;4905128;28;45485;-62
2023/03/15 09:06:01;;;;;;;0.40;0.03;;;22.30;45.80;;;;;;4890946;28;45336;-60
2023/03/15 09:08:27;;;;;;;0.28;0.15;;;22.40;45.70;;;;;;4913356;28;46941;-62
2023/03/15 09:10:55;;;;;;;0.20;0.20;;;22.40;45.70;;;;;;4923001;28;44865;-60
2023/03/15 09:13:21;;;;;;;0.15;0.10;;;22.40;45.60;;;;;;4933378;28;45389;-62
2023/03/15 09:15:51;;;;;;;0.17;0.10;;;22.40;45.60;;;;;;4920330;23;46286;-61
2023/03/15 09:18:17;;;;;;;0.15;0.15;;;22.50;45.60;;;;;;4911622;28;45904;-65
2023/03/15 09:20:42;;;;;;;0.20;0.10;;;22.50;45.60;;;;;;4907807;28;46651;-62
2023/03/15 09:23:08;;;;;;;0.55;0.10;;;22.60;45.60;;;;;;4900890;28;45001;-61
2023/03/15 09:25:35;;;;;;;3.85;0.17;;;22.60;45.50;;;;;;4921664;28;46970;-61
2023/03/15 09:28:04;;;;;;;0.00;0.00;;;22.60;45.50;;;;;;4915868;28;45470;-61
2023/03/15 09:30:30;;;;;;;0.28;0.20;;;22.60;45.40;;;;;;4930853;28;45027;-60
2023/03/15 09:32:55;;;;;;;0.20;0.10;;;22.70;45.50;;;;;;4915590;28;45035;-59
2023/03/15 09:35:21;;;;;;;0.10;0.10;;;22.70;45.40;;;;;;4949450;23;45301;-59
2023/03/15 09:37:47;;;;;;;0.40;0.03;;;22.80;45.40;;;;;;4912446;28;45371;-58
2023/03/15 09:40:16;;;;;;;0.00;0.00;;;22.80;45.40;;;;;;4912809;28;45467;-61
2023/03/15 09:42:53;;;;;;;0.30;0.20;;;22.80;45.30;;;;;;4949401;28;45236;-59
2023/03/15 09:45:25;;;;;;;0.20;0.20;;;22.90;45.30;;;;;;4928841;28;45992;-63
2023/03/15 09:48:10;;;;;;;1.20;0.22;;;22.90;45.40;;;;;;4927373;28;45570;-60
2023/03/15 09:50:47;;;;;;;0.30;0.20;;;22.90;45.00;;;;;;4927120;28;45007;-59
2023/03/15 09:53:24;;;;;;;0.40;0.08;;;23.00;45.20;;;;;;4952373;28;44762;-57
2023/03/15 09:55:49;;;;;;;0.50;0.20;;;22.90;45.20;;;;;;4941230;28;45371;-59
2023/03/15 09:58:23;;;;;;;0.20;0.20;;;22.80;45.40;;;;;;4929166;28;45465;-59
2023/03/15 10:00:52;;;;;;;0.60;0.20;;;22.80;45.40;;;;;;4925016;28;45239;-60
2023/03/15 10:03:41;;;;;;;0.05;0.00;;;22.90;45.40;;;;;;4927044;28;45441;-61
2023/03/15 10:06:12;;;;;;;0.38;0.15;;;23.00;45.30;;;;;;4926542;28;45614;-63
2023/03/15 10:08:37;;;;;;;1.55;0.22;;;23.00;45.10;;;;;;4945018;28;45354;-60
2023/03/15 10:11:13;;;;;;;4.90;0.32;;;23.00;45.10;;;;;;4942696;23;46208;-61
2023/03/15 10:13:57;;;;;;;0.20;0.20;;;23.10;44.90;;;;;;4910065;28;45571;-61
2023/03/15 10:16:28;;;;;;;0.28;0.15;;;23.10;45.00;;;;;;4841880;28;47187;-59
2023/03/15 10:18:57;;;;;;;0.05;0.03;;;23.10;45.10;;;;;;4869399;28;46036;-62
2023/03/15 10:21:31;;;;;;;0.00;0.00;;;23.20;45.00;;;;;;4883303;28;45117;-61
2023/03/15 10:23:56;;;;;;;0.20;0.10;;;23.20;45.00;;;;;;4876638;28;45307;-62
2023/03/15 10:26:26;;;;;;;1.17;0.38;;;23.30;45.00;;;;;;4883180;28;45605;-60
2023/03/15 10:28:52;;;;;;;0.22;0.10;;;23.30;45.00;;;;;;4883639;28;45477;-60
2023/03/15 10:31:24;;;;;;;0.10;0.10;;;23.40;45.00;;;;;;4900373;28;45875;-60
2023/03/15 10:33:49;;;;;;;0.10;0.10;;;23.40;45.00;;;;;;4871609;28;44798;-61
2023/03/15 10:36:20;;;;;;;1.17;0.15;;;23.50;44.90;;;;;;4898557;28;45305;-59
2023/03/15 10:38:47;;;;;;;0.22;0.10;;;23.60;44.70;;;;;;4889030;28;45133;-61
2023/03/15 10:41:13;;;;;;;0.30;0.20;;;23.60;44.70;;;;;;4895581;28;45573;-58
2023/03/15 10:43:40;;;;;;;0.20;0.20;;;23.70;44.70;;;;;;4892650;28;45537;-61
2023/03/15 10:46:22;;;;;;;0.20;0.10;;;23.70;44.60;;;;;;4891324;28;45393;-58
2023/03/15 10:49:08;;;;;;;0.10;0.10;;;23.70;44.40;;;;;;4872722;28;45331;-57
2023/03/15 10:51:42;;;;;;;0.10;0.10;;;23.80;44.20;;;;;;4887076;28;45262;-59
2023/03/15 10:54:14;;;;;;;0.20;0.10;;;23.80;44.30;;;;;;4899077;28;45273;-60
2023/03/15 10:56:47;;;;;;;0.13;0.10;;;23.80;44.30;;;;;;4881870;28;45542;-61
2023/03/15 10:59:23;;;;;;;0.30;0.10;;;23.80;44.20;;;;;;4903634;28;47277;-59
2023/03/15 11:01:53;;;;;;;0.47;0.30;;;23.90;44.10;;;;;;4870425;28;45879;-58
2023/03/15 11:04:22;;;;;;;0.82;0.20;;;23.90;44.30;;;;;;4870388;28;45820;-59
2023/03/15 11:06:50;;;;;;;1.55;0.20;;;23.80;44.30;;;;;;4903145;28;45307;-58
2023/03/15 11:09:21;;;;;;;0.80;0.10;;;23.90;44.30;;;;;;4873398;28;45886;-58
2023/03/15 11:11:54;;;;;;;0.70;0.20;;;23.90;44.10;;;;;;4883203;28;45088;-56
2023/03/15 11:14:20;;;;;;;1.08;0.10;;;23.90;44.10;;;;;;4890433;28;45783;-60
2023/03/15 11:16:47;;;;;;;0.30;0.10;;;23.90;44.20;;;;;;4880788;28;46077;-58
2023/03/15 11:19:15;;;;;;;0.30;0.25;;;23.90;44.10;;;;;;4886760;28;46321;-61
2023/03/15 11:21:41;;;;;;;0.13;0.13;;;23.90;44.10;;;;;;4883598;23;45356;-58
2023/03/15 11:24:09;;;;;;;0.32;0.10;;;24.00;44.10;;;;;;4917893;28;45513;-59
2023/03/15 11:26:36;;;;;;;0.80;0.20;;;23.90;44.10;;;;;;4899563;28;46835;-59
2023/03/15 11:29:32;;;;;;;0.10;0.10;;;24.00;44.10;;;;;;4897864;28;45399;-60
2023/03/15 11:32:06;;;;;;;0.30;0.10;;;24.00;43.80;;;;;;4911563;28;45285;-62
2023/03/15 11:34:57;;;;;;;0.10;0.10;;;24.00;43.90;;;;;;4907819;28;46109;-58
2023/03/15 11:37:52;;;;;;;0.10;0.10;;;24.00;43.70;;;;;;4920791;28;46499;-61
2023/03/15 11:40:37;;;;;;;0.43;0.17;;;24.00;43.80;;;;;;4905277;28;45783;-61
2023/03/15 11:43:07;;;;;;;0.30;0.20;;;24.00;44.00;;;;;;4921756;28;45735;-59
2023/03/15 11:45:34;;;;;;;0.10;0.10;;;24.00;43.90;;;;;;4926584;28;46289;-61
2023/03/15 11:48:17;;;;;;;0.38;0.20;;;24.00;44.00;;;;;;4913963;28;45799;-59
2023/03/15 11:50:43;;;;;;;1.07;0.10;;;24.00;43.80;;;;;;4904838;28;45415;-61
2023/03/15 11:53:11;;;;;;;0.25;0.10;;;24.00;43.90;;;;;;4913420;28;45604;-60
2023/03/15 11:55:36;;;;;;;0.82;0.20;;;24.10;43.90;;;;;;4916944;28;45369;-61
2023/03/15 11:58:32;;;;;;;0.10;0.10;;;24.10;43.90;;;;;;4908682;28;45487;-62
2023/03/15 12:01:02;;;;;;;0.25;0.20;;;24.10;43.50;;;;;;4910837;28;45665;-60
2023/03/15 12:03:33;;;;;;;0.10;0.10;;;24.10;43.80;;;;;;4942651;28;45601;-60
2023/03/15 12:06:17;;;;;;;0.30;0.10;;;24.10;43.80;;;;;;4923773;28;45311;-57
2023/03/15 12:08:53;;;;;;;0.55;0.10;;;24.10;43.50;;;;;;4928991;28;45625;-60
2023/03/15 12:11:18;;;;;;;0.22;0.10;;;24.10;43.60;;;;;;4922784;28;46202;-61
2023/03/15 12:13:59;;;;;;;0.30;0.20;;;24.10;43.80;;;;;;4932035;28;46001;-60
2023/03/15 12:16:26;;;;;;;0.20;0.10;;;24.10;43.50;;;;;;4920678;28;45777;-57
2023/03/15 12:18:54;;;;;;;0.45;0.10;;;24.10;43.70;;;;;;4923201;28;45470;-61
2023/03/15 12:21:46;;;;;;;0.32;0.13;;;24.10;43.80;;;;;;4922203;28;45380;-60
2023/03/15 12:24:25;;;;;;;0.75;0.20;;;24.10;43.70;;;;;;4923636;28;46236;-60
2023/03/15 12:26:58;;;;;;;0.25;0.25;;;24.20;43.60;;;;;;4920654;28;46158;-58
2023/03/15 12:29:25;;;;;;;0.30;0.10;;;24.20;43.50;;;;;;4910555;28;48107;-61
2023/03/15 12:31:59;;;;;;;0.13;0.10;;;24.20;43.60;;;;;;4899599;28;45431;-60
2023/03/15 12:34:36;;;;;;;0.30;0.15;;;24.20;43.50;;;;;;4925961;28;45575;-60
2023/03/15 12:37:12;;;;;;;0.30;0.10;;;24.20;43.60;;;;;;4924144;28;45111;-63
2023/03/15 12:39:43;;;;;;;0.55;0.10;;;24.20;43.50;;;;;;4902885;28;45590;-60
2023/03/15 12:42:29;;;;;;;0.13;0.10;;;24.20;43.60;;;;;;4923527;28;45361;-58
2023/03/15 12:45:04;;;;;;;0.50;0.15;;;24.20;43.50;;;;;;4923998;28;45517;-60
2023/03/15 12:47:45;;;;;;;0.10;0.10;;;24.20;43.60;;;;;;4889025;28;46421;-58
2023/03/15 12:50:43;;;;;;;0.65;0.10;;;24.20;43.30;;;;;;4924807;28;45748;-62
2023/03/15 12:53:37;;;;;;;0.47;0.13;;;24.20;43.20;;;;;;4936690;28;45316;-59
2023/03/15 12:56:17;;;;;;;0.10;0.10;;;24.20;43.40;;;;;;4925638;28;45309;-60
2023/03/15 12:58:45;;;;;;;0.70;0.20;;;24.30;43.30;;;;;;4917975;28;45481;-62
2023/03/15 13:01:15;;;;;;;0.17;0.10;;;24.30;43.50;;;;;;4917134;28;45409;-59
2023/03/15 13:03:40;;;;;;;0.05;0.05;;;24.30;43.60;;;;;;4895289;28;45485;-60
2023/03/15 13:06:33;;;;;;;0.63;0.20;;;24.30;43.60;;;;;;4925438;28;45718;-58
2023/03/15 13:09:23;;;;;;;0.30;0.13;;;24.30;43.30;;;;;;4924219;28;45351;-57
2023/03/15 13:12:07;;;;;;;1.90;0.10;;;24.30;43.40;;;;;;4914482;28;46519;-61
2023/03/15 13:14:51;;;;;;;0.50;0.20;;;24.30;43.20;;;;;;4929401;28;46180;-60
2023/03/15 13:17:35;;;;;;;0.28;0.10;;;24.30;43.20;;;;;;4923545;28;45607;-58
2023/03/15 13:20:29;;;;;;;0.20;0.10;;;24.30;43.40;;;;;;4922648;28;45237;-59
2023/03/15 13:22:58;;;;;;;0.30;0.10;;;24.40;43.10;;;;;;4948318;28;46186;-61
2023/03/15 13:25:25;;;;;;;0.28;0.10;;;24.30;43.30;;;;;;4928344;28;45518;-58
2023/03/15 13:27:58;;;;;;;0.60;0.25;;;24.40;43.40;;;;;;4933934;28;45243;-60
2023/03/15 13:30:36;;;;;;;0.30;0.20;;;24.40;43.30;;;;;;4939835;28;45354;-60
2023/03/15 13:33:23;;;;;;;0.32;0.10;;;24.40;43.10;;;;;;4916525;28;47623;-59
2023/03/15 13:35:55;;;;;;;0.35;0.30;;;24.40;43.30;;;;;;4931653;28;45364;-61
2023/03/15 13:38:29;;;;;;;0.10;0.10;;;24.40;43.30;;;;;;4932306;28;45221;-61
2023/03/15 13:40:55;;;;;;;0.20;0.10;;;24.40;43.30;;;;;;4927002;28;45731;-62
2023/03/15 13:43:51;;;;;;;0.65;0.30;;;24.40;43.30;;;;;;4930878;28;45393;-60
2023/03/15 13:46:18;;;;;;;0.75;0.20;;;24.40;42.90;;;;;;4909249;28;45130;-61
2023/03/15 13:48:45;;;;;;;0.13;0.10;;;24.40;43.20;;;;;;4933021;28;45933;-62
2023/03/15 13:51:22;;;;;;;0.30;0.20;;;24.40;43.20;;;;;;4939886;28;45320;-62
2023/03/15 13:53:49;;;;;;;0.10;0.10;;;24.40;43.00;;;;;;4945449;28;45390;-61
2023/03/15 13:56:17;;;;;;;0.25;0.10;;;24.40;43.20;;;;;;4929079;28;45531;-60
2023/03/15 13:58:42;;;;;;;0.32;0.10;;;24.40;43.10;;;;;;4918839;28;45256;-61
2023/03/15 14:01:09;;;;;;;0.15;0.10;;;24.40;43.10;;;;;;4904759;28;45287;-63
2023/03/15 14:03:36;;;;;;;0.10;0.10;;;24.50;43.20;;;;;;4912925;28;46195;-58
2023/03/15 14:06:02;;;;;;;0.20;0.10;;;24.50;43.20;;;;;;4929713;28;44684;-61
2023/03/15 14:08:34;;;;;;;0.10;0.10;;;24.50;43.20;;;;;;4950167;28;46128;-61
2023/03/15 14:11:18;;;;;;;0.10;0.10;;;24.50;43.10;;;;;;4913937;28;46255;-61
2023/03/15 14:13:50;;;;;;;0.20;0.10;;;24.50;43.10;;;;;;4934815;28;46528;-59
2023/03/15 14:16:28;;;;;;;0.00;0.00;;;24.50;43.00;;;;;;4924420;28;46161;-62
2023/03/15 14:18:54;;;;;;;0.10;0.10;;;24.50;43.00;;;;;;4935262;28;45247;-59
2023/03/15 14:21:27;;;;;;;0.52;0.10;;;24.50;43.10;;;;;;4925372;28;45499;-62
2023/03/15 14:23:53;;;;;;;0.25;0.10;;;24.50;43.00;;;;;;4932070;28;45745;-62
2023/03/15 14:26:28;;;;;;;0.57;0.10;;;24.50;43.00;;;;;;4930335;28;45354;-61
2023/03/15 14:28:56;;;;;;;0.95;0.17;;;24.50;42.80;;;;;;4919520;28;45622;-61
2023/03/15 14:31:23;;;;;;;0.10;0.10;;;24.40;43.10;;;;;;4907664;28;45636;-60
2023/03/15 14:33:54;;;;;;;0.35;0.10;;;24.40;43.20;;;;;;4923806;28;46516;-62
2023/03/15 14:36:31;;;;;;;0.40;0.20;;;24.30;43.20;;;;;;4926426;28;45700;-60
2023/03/15 14:38:57;;;;;;;0.60;0.20;;;24.20;43.30;;;;;;4933981;28;45244;-61
2023/03/15 14:41:31;;;;;;;0.28;0.20;;;24.10;43.50;;;;;;4939791;28;45174;-61
2023/03/15 14:44:00;;;;;;;0.35;0.25;;;24.00;43.60;;;;;;4947512;28;46114;-60
2023/03/15 14:46:30;;;;;;;0.25;0.10;;;24.00;43.80;;;;;;4926277;28;45255;-61
2023/03/15 14:48:56;;;;;;;0.20;0.15;;;23.90;43.90;;;;;;4934327;28;45560;-62
2023/03/15 14:51:22;;;;;;;0.30;0.10;;;23.80;44.00;;;;;;4909619;28;46380;-60
2023/03/15 14:53:49;;;;;;;0.55;0.00;;;23.80;44.40;;;;;;4934489;28;45336;-62
2023/03/15 14:56:15;;;;;;;0.68;0.13;;;23.70;44.20;;;;;;4942036;28;45711;-61
2023/03/15 14:58:41;;;;;;;0.20;0.10;;;23.70;44.30;;;;;;4933507;28;45517;-60
2023/03/15 15:01:06;;;;;;;0.30;0.10;;;23.60;44.40;;;;;;4924977;28;45313;-62
2023/03/15 15:03:40;;;;;;;0.85;0.10;;;23.50;44.50;;;;;;4933491;28;45529;-63
2023/03/15 15:06:06;;;;;;;;;;;23.50;44.60;;;;;;4924938;28;45894;-61
2023/03/15 15:08:31;;;;;;;0.60;0.15;;;23.40;44.70;;;;;;4934647;28;45502;-62
2023/03/15 15:10:57;;;;;;;0.20;0.15;;;23.40;44.70;;;;;;4909903;28;45513;-63
2023/03/15 15:13:24;;;;;;;0.85;0.43;;;23.30;44.80;;;;;;4915705;28;46384;-63
2023/03/15 15:15:50;;;;;;;1.08;0.30;;;23.20;44.90;;;;;;4920687;28;45644;-62
2023/03/15 15:18:18;;;;;;;3.95;0.22;;;23.20;45.00;;;;;;4933019;28;45272;-64
2023/03/15 15:20:44;;;;;;;0.80;0.20;;;23.20;45.20;;;;;;4927627;28;45698;-61
2023/03/15 15:23:11;;;;;;;1.30;0.20;;;23.20;45.20;;;;;;4916335;28;45348;-62
2023/03/15 15:25:36;;;;;;;3.50;0.35;;;23.10;45.30;;;;;;4911121;28;46143;-62
2023/03/15 15:28:02;;;;;;;2.30;0.30;;;23.10;45.30;;;;;;4945875;28;45777;-63
2023/03/15 15:30:30;;;;;;;2.45;0.28;;;23.10;45.50;;;;;;4936014;28;46389;-64
2023/03/15 15:32:56;;;;;;;4.97;0.30;;;23.00;45.60;;;;;;4916692;28;46555;-61
2023/03/15 15:35:21;;;;;;;2.53;0.20;;;23.00;45.60;;;;;;4928320;28;44848;-61
2023/03/15 15:37:47;;;;;;;0.45;0.45;;;23.00;45.60;;;;;;4935412;28;45408;-59
2023/03/15 15:40:18;;;;;;;1.00;0.30;;;23.00;45.70;;;;;;4932596;28;46550;-63
2023/03/15 15:42:44;;;;;;;0.45;0.20;;;22.90;45.80;;;;;;4935644;28;45663;-59
2023/03/15 15:45:11;;;;;;;3.13;0.30;;;22.90;45.90;;;;;;4946018;28;45097;-63
2023/03/15 15:47:37;;;;;;;0.63;0.20;;;22.80;45.90;;;;;;4914687;28;45755;-62
2023/03/15 15:50:07;;;;;;;2.75;0.30;;;22.80;46.00;;;;;;4935357;28;46030;-64
2023/03/15 15:52:32;;;;;;;1.35;0.30;;;22.80;46.10;;;;;;4933395;28;45731;-61
2023/03/15 15:54:59;;;;;;;0.82;0.30;;;22.70;46.20;;;;;;4936092;28;45078;-61
2023/03/15 15:57:25;;;;;;;0.90;0.20;;;22.70;46.90;;;;;;4915996;28;45676;-59
2023/03/15 15:59:51;;;;;;;0.75;0.32;;;22.70;46.30;;;;;;4948744;28;45910;-58
2023/03/15 16:02:20;;;;;;;0.30;0.30;;;22.60;46.30;;;;;;4924935;28;45964;-60
2023/03/15 16:04:50;;;;;;;0.32;0.15;;;22.60;46.40;;;;;;4927330;28;45023;-61
2023/03/15 16:07:15;;;;;;;0.65;0.30;;;22.60;46.40;;;;;;4943651;28;44782;-60
2023/03/15 16:09:41;;;;;;;1.25;0.30;;;22.50;46.50;;;;;;4918691;28;45287;-61
2023/03/15 16:12:15;;;;;;;0.40;0.35;;;22.50;46.60;;;;;;4918185;28;46179;-58
2023/03/15 16:14:40;;;;;;;0.85;0.30;;;22.50;46.60;;;;;;4935637;28;44859;-63
2023/03/15 16:17:25;;;;;;;0.65;0.20;;;22.40;46.60;;;;;;4927658;28;45281;-61
2023/03/15 16:19:51;;;;;;;1.58;0.30;;;22.40;46.80;;;;;;4948630;28;45226;-60
2023/03/15 16:22:36;;;;;;;0.43;0.28;;;22.40;46.70;;;;;;4941931;28;45495;-60
2023/03/15 16:25:15;;;;;;;0.28;0.20;;;22.30;46.70;;;;;;4947137;28;46194;-63
2023/03/15 16:27:41;;;;;;;1.38;0.40;;;22.30;46.90;;;;;;4934552;28;45268;-61
2023/03/15 16:30:10;;;;;;;3.70;0.25;;;22.30;46.90;;;;;;4929460;28;45239;-62
2023/03/15 16:32:36;;;;;;;1.13;0.38;;;22.30;46.90;;;;;;4909104;28;45443;-60
2023/03/15 16:35:04;;;;;;;4.43;0.30;;;22.20;46.90;;;;;;4914462;28;45600;-61
2023/03/15 16:37:30;;;;;;;0.22;0.20;;;22.20;46.90;;;;;;4901250;28;47584;-61
2023/03/15 16:39:56;;;;;;;3.17;0.30;;;22.10;46.90;;;;;;4947492;28;45508;-56
2023/03/15 16:42:23;;;;;;;2.50;0.30;;;22.10;46.90;;;;;;4926599;28;46386;-60
2023/03/15 16:44:50;;;;;;;0.93;0.30;;;22.10;47.00;;;;;;4923778;28;45439;-62
2023/03/15 16:47:15;;;;;;;0.25;0.20;;;22.00;47.00;;;;;;4933613;28;48596;-62
2023/03/15 16:49:41;;;;;;;0.30;0.20;;;21.90;47.00;;;;;;4929207;28;46302;-63
2023/03/15 16:52:07;;;;;;;0.70;0.30;;;21.90;47.20;;;;;;4933953;28;46058;-62
2023/03/15 16:54:32;;;;;;;0.95;0.40;;;21.90;47.10;;;;;;4940561;28;45591;-61
2023/03/15 16:57:00;;;;;;;0.65;0.30;;;21.90;47.80;;;;;;4943593;23;45521;-61
2023/03/15 16:59:26;;;;;;;1.60;0.30;;;21.80;47.10;;;;;;4924180;28;46570;-59